Time;durP1;ratioP1;P1;durP2;ratioP2;P2;SDS_P1;SDS_P2;PMS_P1;PMS_P2;Temp;Humidity;BMP_temperature;BMP_pressure;BME280_temperature;BME280_humidity;BME280_pressure;Samples;Min_cycle;Max_cycle;Signal;HPM_P1;HPM_P2
2023/12/22 00:01:35;;;;;;;13.50;11.00;;;;;;;2.70;100.00;97782.88;87078;269;136483;-74
2023/12/22 00:03:37;;;;;;;12.80;9.80;;;;;;;2.70;100.00;97773.16;87156;277;25114;-74
2023/12/22 00:05:39;;;;;;;11.90;9.20;;;;;;;2.69;100.00;97773.17;87013;270;136528;-75
2023/12/22 00:07:41;;;;;;;14.80;10.50;;;;;;;2.67;100.00;97775.18;87210;277;24035;-74
2023/12/22 00:09:43;;;;;;;11.80;10.40;;;;;;;2.71;100.00;97774.23;87136;269;138077;-75
2023/12/22 00:11:44;;;;;;;15.10;10.40;;;;;;;2.71;100.00;97770.91;87221;269;22577;-73
2023/12/22 00:13:46;;;;;;;12.70;9.30;;;;;;;2.73;100.00;97763.50;87111;270;136735;-72
2023/12/22 00:15:48;;;;;;;14.60;9.50;;;;;;;2.75;100.00;97758.94;87152;274;24880;-72
2023/12/22 00:17:50;;;;;;;13.90;10.10;;;;;;;2.74;100.00;97759.52;87067;270;136636;-74
2023/12/22 00:19:53;;;;;;;12.00;9.80;;;;;;;2.74;100.00;97747.23;87265;269;22570;-73
2023/12/22 00:21:54;;;;;;;13.80;10.40;;;;;;;2.75;100.00;97748.33;87143;277;136381;-71
2023/12/22 00:23:56;;;;;;;11.80;9.20;;;;;;;2.76;100.00;97736.19;87203;270;25338;-73
2023/12/22 00:25:58;;;;;;;13.40;9.60;;;;;;;2.55;100.00;97708.45;87130;277;137901;-73
2023/12/22 00:28:00;;;;;;;14.10;9.30;;;;;;;2.71;100.00;97728.02;87212;270;25117;-74
2023/12/22 00:30:02;;;;;;;11.90;8.80;;;;;;;2.68;100.00;97727.73;87133;269;136264;-72
2023/12/22 00:32:05;;;;;;;16.10;9.00;;;;;;;2.68;100.00;97726.08;87172;270;136732;-72
2023/12/22 00:34:07;;;;;;;16.30;9.20;;;;;;;2.68;100.00;97725.26;87317;269;23510;-73
2023/12/22 00:36:09;;;;;;;13.70;9.60;;;;;;;2.67;100.00;97718.02;87022;270;137712;-74
2023/12/22 00:38:11;;;;;;;11.60;8.90;;;;;;;2.72;100.00;97720.36;87194;270;22680;-75
2023/12/22 00:40:12;;;;;;;12.80;8.80;;;;;;;2.69;100.00;97717.73;87073;268;137368;-72
2023/12/22 00:42:14;;;;;;;13.10;9.50;;;;;;;2.67;100.00;97708.88;87272;267;22559;-73
2023/12/22 00:44:16;;;;;;;10.80;7.90;;;;;;;2.67;100.00;97707.17;87129;274;136719;-75
2023/12/22 00:46:19;;;;;;;13.60;8.40;;;;;;;2.65;100.00;97701.80;87242;266;26440;-75
2023/12/22 00:48:21;;;;;;;11.20;8.60;;;;;;;2.65;100.00;97698.67;87079;274;138066;-72
2023/12/22 00:50:24;;;;;;;11.40;8.80;;;;;;;2.67;100.00;97695.44;87190;270;25242;-73
2023/12/22 00:52:26;;;;;;;13.00;9.40;;;;;;;2.64;100.00;97694.39;87120;274;136611;-72
2023/12/22 00:54:30;;;;;;;10.40;8.50;;;;;;;2.64;100.00;97689.90;87231;270;22580;-75
2023/12/22 00:56:31;;;;;;;9.40;7.40;;;;;;;2.64;100.00;97686.09;87078;269;136744;-75
2023/12/22 00:58:33;;;;;;;11.60;9.80;;;;;;;2.66;100.00;97675.85;87140;269;22788;-73
2023/12/22 01:00:35;;;;;;;13.40;9.20;;;;;;;2.67;100.00;97667.69;87186;269;137818;-73
2023/12/22 01:02:37;;;;;;;12.30;9.40;;;;;;;2.64;100.00;97662.83;87224;278;22585;-72
2023/12/22 01:04:41;;;;;;;10.20;7.90;;;;;;;2.65;100.00;97656.77;87039;266;137315;-73
2023/12/22 01:06:43;;;;;;;14.60;10.80;;;;;;;2.63;100.00;97649.27;87235;270;25088;-73
2023/12/22 01:08:45;;;;;;;12.80;8.70;;;;;;;2.64;100.00;97646.84;87224;275;137292;-72
2023/12/22 01:10:46;;;;;;;10.80;8.40;;;;;;;2.65;100.00;97638.67;87392;278;24087;-71
2023/12/22 01:12:48;;;;;;;9.20;8.10;;;;;;;2.66;100.00;97629.73;87173;278;137899;-76
2023/12/22 01:14:51;;;;;;;12.90;9.30;;;;;;;2.62;100.00;97638.50;87152;275;25250;-73
2023/12/22 01:16:53;;;;;;;11.60;9.40;;;;;;;2.65;100.00;97636.67;87020;270;137145;-72
2023/12/22 01:18:55;;;;;;;11.80;9.20;;;;;;;2.66;100.00;97629.28;87174;267;22727;-72
2023/12/22 01:20:57;;;;;;;17.70;10.00;;;;;;;2.66;100.00;97631.86;87045;270;136574;-72
2023/12/22 01:22:59;;;;;;;13.20;9.80;;;;;;;2.59;100.00;97614.56;87273;278;24161;-73
2023/12/22 01:25:03;;;;;;;13.20;9.10;;;;;;;2.66;100.00;97624.30;87170;270;137386;-73
2023/12/22 01:27:04;;;;;;;16.00;8.80;;;;;;;2.70;100.00;97622.23;87383;278;24480;-74
2023/12/22 01:29:06;;;;;;;12.30;8.80;;;;;;;2.69;100.00;97622.48;87186;270;136366;-72
2023/12/22 01:31:08;;;;;;;13.10;8.80;;;;;;;2.70;100.00;97621.38;87284;274;22594;-74
2023/12/22 01:33:10;;;;;;;13.30;9.90;;;;;;;2.71;100.00;97623.81;87181;277;136492;-74
2023/12/22 01:35:12;;;;;;;13.60;9.00;;;;;;;2.70;100.00;97623.94;87269;270;25181;-74
2023/12/22 01:37:14;;;;;;;15.40;9.50;;;;;;;2.72;100.00;97621.54;87122;270;136443;-73
2023/12/22 01:39:17;;;;;;;15.90;9.70;;;;;;;2.73;100.00;97613.37;87191;274;22570;-71
2023/12/22 01:41:18;;;;;;;16.70;9.50;;;;;;;2.70;100.00;97604.46;87383;266;136374;-72
2023/12/22 01:43:21;;;;;;;13.40;10.00;;;;;;;2.74;100.00;97613.05;87133;278;22834;-72
2023/12/22 01:45:24;;;;;;;15.80;10.70;;;;;;;2.74;100.00;97612.18;87229;271;137268;-74
2023/12/22 01:47:26;;;;;;;15.70;10.30;;;;;;;2.79;100.00;97608.26;87113;270;26214;-74
2023/12/22 01:49:29;;;;;;;16.20;10.10;;;;;;;2.81;100.00;97607.96;87364;267;137541;-74
2023/12/22 01:51:35;;;;;;;13.00;8.80;;;;;;;2.83;100.00;97601.33;87177;270;22578;-72
2023/12/22 01:53:37;;;;;;;14.20;9.80;;;;;;;2.83;100.00;97599.95;86882;269;136389;-72
2023/12/22 01:55:40;;;;;;;10.50;8.50;;;;;;;2.84;100.00;97597.16;87415;269;22652;-72
2023/12/22 01:57:44;;;;;;;14.00;9.30;;;;;;;2.82;100.00;97593.40;87107;269;136467;-72
2023/12/22 01:59:48;;;;;;;13.00;9.20;;;;;;;2.82;100.00;97581.82;87702;266;23375;-72
2023/12/22 02:01:52;;;;;;;12.40;9.60;;;;;;;2.84;100.00;97580.56;87294;266;136733;-72
2023/12/22 02:03:56;;;;;;;12.00;9.00;;;;;;;2.84;100.00;97574.04;87168;269;22639;-70
2023/12/22 02:05:59;;;;;;;12.80;9.40;;;;;;;2.86;100.00;97562.73;87101;274;136995;-72
2023/12/22 02:08:01;;;;;;;14.30;9.30;;;;;;;2.87;100.00;97561.73;87405;270;25621;-72
2023/12/22 02:10:03;;;;;;;13.90;9.00;;;;;;;2.86;100.00;97565.36;87055;274;22623;-73
2023/12/22 02:12:06;;;;;;;13.50;10.00;;;;;;;2.86;100.00;97560.44;87032;271;136485;-74
2023/12/22 02:14:08;;;;;;;12.80;9.00;;;;;;;2.86;100.00;97562.02;87807;275;22568;-74
2023/12/22 02:16:26;;;;;;;14.50;9.90;;;;;;;2.85;100.00;97556.52;87037;266;138022;-73
2023/12/22 02:18:35;;;;;;;13.90;10.10;;;;;;;2.85;100.00;97559.23;87170;273;25473;-72
2023/12/22 02:20:38;;;;;;;13.70;10.10;;;;;;;2.72;100.00;97532.80;87201;273;136528;-73
2023/12/22 02:22:40;;;;;;;14.20;10.80;;;;;;;2.83;100.00;97547.55;87196;271;22583;-73
2023/12/22 02:24:42;;;;;;;12.40;10.80;;;;;;;2.83;100.00;97540.70;87091;271;137242;-73
2023/12/22 02:26:47;;;;;;;14.90;9.70;;;;;;;2.83;100.00;97543.82;87290;269;25232;-76
2023/12/22 02:28:50;;;;;;;13.00;9.70;;;;;;;2.81;100.00;97533.38;87173;265;136559;-73
2023/12/22 02:31:21;;;;;;;12.70;9.90;;;;;;;2.81;100.00;97535.90;87314;269;22574;-74
2023/12/22 02:33:28;;;;;;;14.10;10.30;;;;;;;2.78;100.00;97535.04;87037;269;136736;-75
2023/12/22 02:35:35;;;;;;;10.40;8.80;;;;;;;2.77;100.00;97529.71;87194;277;25172;-73
2023/12/22 02:37:41;;;;;;;14.80;9.50;;;;;;;2.77;100.00;97522.55;87122;271;136211;-73
2023/12/22 02:39:43;;;;;;;11.20;10.10;;;;;;;2.66;100.00;97511.70;87155;278;23999;-74
2023/12/22 02:41:46;;;;;;;12.00;9.90;;;;;;;2.76;100.00;97517.22;87133;266;137416;-72
2023/12/22 02:43:48;;;;;;;12.60;9.10;;;;;;;2.77;100.00;97519.95;87293;270;22574;-74
2023/12/22 02:45:51;;;;;;;14.00;9.30;;;;;;;2.78;100.00;97519.35;87405;274;136737;-72
2023/12/22 02:47:54;;;;;;;15.90;9.00;;;;;;;2.78;100.00;97517.04;87299;270;22652;-71
2023/12/22 02:49:57;;;;;;;13.70;8.90;;;;;;;2.78;100.00;97521.95;87277;274;136493;-76
2023/12/22 02:51:58;;;;;;;11.70;9.10;;;;;;;2.77;100.00;97522.35;87190;270;25095;-74
2023/12/22 02:54:00;;;;;;;12.60;8.80;;;;;;;2.81;100.00;97518.33;87056;266;136562;-73
2023/12/22 02:56:02;;;;;;;14.00;10.10;;;;;;;2.81;100.00;97524.52;87270;270;22700;-75
2023/12/22 02:58:04;;;;;;;11.30;9.30;;;;;;;2.80;100.00;97521.77;87338;270;22589;-75
2023/12/22 03:00:07;;;;;;;11.80;9.20;;;;;;;2.80;100.00;97521.94;87057;266;136857;-73
2023/12/22 03:02:09;;;;;;;14.10;10.10;;;;;;;2.80;100.00;97522.66;87265;269;26130;-75
2023/12/22 03:04:10;;;;;;;16.10;10.30;;;;;;;2.78;100.00;97517.56;87126;266;137718;-74
2023/12/22 03:06:12;;;;;;;12.70;10.00;;;;;;;2.79;100.00;97509.39;87273;270;22524;-74
2023/12/22 03:08:14;;;;;;;11.50;9.30;;;;;;;2.78;100.00;97506.00;87126;270;137036;-73
2023/12/22 03:10:18;;;;;;;11.90;8.80;;;;;;;2.73;100.00;97496.83;87247;270;22568;-74
2023/12/22 03:12:20;;;;;;;15.00;9.40;;;;;;;2.70;100.00;97499.63;87117;270;138404;-73
2023/12/22 03:14:22;;;;;;;11.40;9.90;;;;;;;2.68;100.00;97491.62;87190;274;22594;-73
2023/12/22 03:16:24;;;;;;;12.20;9.50;;;;;;;2.69;100.00;97493.28;87103;275;136420;-72
2023/12/22 03:18:26;;;;;;;13.60;10.20;;;;;;;2.67;100.00;97485.44;87278;266;25162;-74
2023/12/22 03:20:28;;;;;;;14.20;9.40;;;;;;;2.67;100.00;97476.46;87095;270;137038;-73
2023/12/22 03:22:30;;;;;;;13.30;10.30;;;;;;;2.66;100.00;97471.27;87115;270;25124;-76
2023/12/22 03:24:32;;;;;;;12.00;9.70;;;;;;;2.62;100.00;97463.08;87112;270;137082;-73
2023/12/22 03:26:34;;;;;;;15.00;11.00;;;;;;;2.69;100.00;97473.89;87245;269;25092;-71
2023/12/22 03:28:35;;;;;;;12.00;10.40;;;;;;;2.66;100.00;97471.02;87099;269;140676;-73
2023/12/22 03:30:38;;;;;;;14.20;9.20;;;;;;;2.69;100.00;97473.08;87170;270;26211;-73
2023/12/22 03:32:39;;;;;;;11.30;8.80;;;;;;;2.69;100.00;97475.44;87118;270;136940;-74
2023/12/22 03:34:41;;;;;;;13.60;9.00;;;;;;;2.68;100.00;97470.66;87229;269;24890;-75
2023/12/22 03:36:48;;;;;;;12.90;10.10;;;;;;;2.62;100.00;97474.56;87079;269;136993;-71
2023/12/22 03:38:49;;;;;;;12.60;9.30;;;;;;;2.63;100.00;97476.23;87160;269;24144;-74
2023/12/22 03:40:51;;;;;;;13.00;9.60;;;;;;;2.62;100.00;97474.64;87035;278;136930;-74
2023/12/22 03:42:53;;;;;;;11.00;9.00;;;;;;;2.64;100.00;97469.76;87233;269;25242;-75
2023/12/22 03:44:55;;;;;;;12.50;9.90;;;;;;;2.64;100.00;97473.51;87065;266;136762;-74
2023/12/22 03:46:56;;;;;;;12.10;10.60;;;;;;;2.64;100.00;97466.51;87168;269;22655;-75
2023/12/22 03:48:58;;;;;;;16.00;9.40;;;;;;;2.69;100.00;97464.55;87079;275;137140;-74
2023/12/22 03:51:00;;;;;;;14.40;10.60;;;;;;;2.70;100.00;97463.36;87193;269;22642;-73
2023/12/22 03:53:02;;;;;;;12.10;9.60;;;;;;;2.71;100.00;97462.55;87179;270;138020;-73
2023/12/22 03:55:04;;;;;;;13.60;9.70;;;;;;;2.68;100.00;97465.36;87334;269;22562;-73
2023/12/22 03:57:07;;;;;;;13.10;9.70;;;;;;;2.66;100.00;97459.50;87050;266;136734;-73
2023/12/22 03:59:09;;;;;;;13.30;9.50;;;;;;;2.68;100.00;97457.44;87223;274;22593;-74
2023/12/22 04:01:14;;;;;;;12.80;9.60;;;;;;;2.71;100.00;97457.83;87072;266;138148;-76
2023/12/22 04:03:16;;;;;;;11.90;9.80;;;;;;;2.71;100.00;97469.20;87231;266;22751;-74
2023/12/22 04:05:18;;;;;;;11.20;8.90;;;;;;;2.73;100.00;97479.23;87091;270;137104;-72
2023/12/22 04:07:20;;;;;;;10.60;9.40;;;;;;;2.75;100.00;97488.39;87127;278;22559;-74
2023/12/22 04:09:22;;;;;;;12.20;8.90;;;;;;;2.78;100.00;97492.04;87279;274;137158;-74
2023/12/22 04:11:24;;;;;;;11.80;10.30;;;;;;;2.78;100.00;97489.28;87223;266;24148;-75
2023/12/22 04:13:25;;;;;;;13.20;9.70;;;;;;;2.79;100.00;97485.43;87165;269;137037;-73
2023/12/22 04:15:27;;;;;;;12.50;9.70;;;;;;;2.77;100.00;97487.10;87234;267;25074;-73
2023/12/22 04:17:30;;;;;;;14.00;9.80;;;;;;;2.78;100.00;97481.67;87136;270;137049;-75
2023/12/22 04:19:32;;;;;;;13.10;10.90;;;;;;;2.77;100.00;97484.19;87378;270;25256;-73
2023/12/22 04:21:34;;;;;;;10.60;8.50;;;;;;;2.78;100.00;97480.82;87158;269;137148;-75
2023/12/22 04:23:36;;;;;;;11.10;9.80;;;;;;;2.77;100.00;97480.54;87105;269;23920;-73
2023/12/22 04:25:38;;;;;;;12.50;10.30;;;;;;;2.76;100.00;97480.67;87084;270;137361;-72
2023/12/22 04:27:39;;;;;;;11.70;9.70;;;;;;;2.75;100.00;97474.48;87271;274;22571;-73
2023/12/22 04:29:41;;;;;;;10.50;8.70;;;;;;;2.72;100.00;97473.56;87135;273;137047;-70
2023/12/22 04:31:43;;;;;;;12.20;10.00;;;;;;;2.69;100.00;97475.27;87243;273;22584;-76
2023/12/22 04:33:45;;;;;;;11.70;8.90;;;;;;;2.66;100.00;97473.23;87244;270;138450;-73
2023/12/22 04:35:47;;;;;;;14.60;10.00;;;;;;;2.65;100.00;97459.50;87232;279;22572;-74
2023/12/22 04:37:48;;;;;;;12.10;9.70;;;;;;;2.64;100.00;97459.64;87157;266;137495;-75
2023/12/22 04:39:51;;;;;;;16.40;11.10;;;;;;;2.60;100.00;97450.70;87195;270;22845;-72
2023/12/22 04:41:53;;;;;;;12.30;10.70;;;;;;;2.58;100.00;97457.06;87108;262;136879;-74
2023/12/22 04:43:55;;;;;;;13.00;10.20;;;;;;;2.59;100.00;97455.40;87182;277;22755;-72
2023/12/22 04:45:57;;;;;;;12.10;9.20;;;;;;;2.63;100.00;97450.57;87220;266;137017;-73
2023/12/22 04:47:59;;;;;;;12.80;9.80;;;;;;;2.63;100.00;97454.66;87399;270;23723;-72
2023/12/22 04:50:01;;;;;;;12.60;10.20;;;;;;;2.59;100.00;97454.46;87125;277;139386;-74
2023/12/22 04:52:04;;;;;;;12.50;10.10;;;;;;;2.52;100.00;97445.23;87389;269;137428;-74
2023/12/22 04:54:06;;;;;;;11.00;9.10;;;;;;;2.50;100.00;97441.84;87242;274;25021;-73
2023/12/22 04:56:08;;;;;;;12.60;9.50;;;;;;;2.49;100.00;97432.22;87178;277;138118;-71
2023/12/22 04:58:10;;;;;;;12.10;10.20;;;;;;;2.48;100.00;97432.98;87110;274;24125;-75
2023/12/22 05:00:13;;;;;;;15.80;11.10;;;;;;;2.50;100.00;97433.59;87108;270;137475;-73
2023/12/22 05:02:14;;;;;;;10.90;9.10;;;;;;;2.52;100.00;97431.20;87446;270;25079;-74
2023/12/22 05:04:17;;;;;;;13.10;9.90;;;;;;;2.54;100.00;97439.36;87094;261;137015;-73
2023/12/22 05:06:20;;;;;;;14.60;10.80;;;;;;;2.53;100.00;97431.05;87044;271;22563;-76
2023/12/22 05:08:21;;;;;;;14.10;11.20;;;;;;;2.53;100.00;97431.42;87055;274;137064;-74
2023/12/22 05:10:23;;;;;;;12.60;9.80;;;;;;;2.53;100.00;97420.75;87049;269;22725;-76
2023/12/22 05:12:25;;;;;;;11.70;9.40;;;;;;;2.51;100.00;97419.23;87040;273;136600;-77
2023/12/22 05:14:27;;;;;;;12.00;9.80;;;;;;;2.49;100.00;97418.46;87028;266;25258;-68
2023/12/22 05:16:30;;;;;;;11.50;9.30;;;;;;;2.48;100.00;97412.84;87196;278;136786;-74
2023/12/22 05:18:32;;;;;;;13.00;10.00;;;;;;;2.44;100.00;97396.60;87278;274;22590;-76
2023/12/22 05:20:34;;;;;;;13.50;10.30;;;;;;;2.53;100.00;97411.13;87085;270;137098;-72
2023/12/22 05:22:37;;;;;;;14.60;11.90;;;;;;;2.50;100.00;97407.45;87226;278;23901;-67
2023/12/22 05:24:39;;;;;;;13.00;9.80;;;;;;;2.42;100.00;97406.11;86896;280;136676;-73
2023/12/22 05:26:40;;;;;;;12.70;10.30;;;;;;;2.35;100.00;97405.80;87137;278;22558;-72
2023/12/22 05:28:42;;;;;;;14.10;10.50;;;;;;;2.35;100.00;97403.42;87098;274;137273;-73
2023/12/22 05:30:44;;;;;;;14.60;10.50;;;;;;;2.30;100.00;97398.38;87262;270;22562;-71
2023/12/22 05:32:46;;;;;;;13.80;10.40;;;;;;;2.31;100.00;97397.66;86952;274;137975;-70
2023/12/22 05:34:48;;;;;;;15.20;10.50;;;;;;;2.27;100.00;97400.70;87093;266;22594;-72
2023/12/22 05:36:50;;;;;;;9.50;8.50;;;;;;;2.25;100.00;97398.93;87074;274;136825;-74
2023/12/22 05:38:52;;;;;;;13.90;10.70;;;;;;;2.25;100.00;97404.63;88512;273;22575;-72
2023/12/22 05:40:54;;;;;;;13.50;10.20;;;;;;;2.24;100.00;97405.12;87062;262;136909;-74
2023/12/22 05:42:57;;;;;;;13.10;10.80;;;;;;;2.21;100.00;97405.17;87306;269;22586;-72
2023/12/22 05:44:58;;;;;;;15.50;11.00;;;;;;;2.18;100.00;97397.98;87391;277;138413;-73
2023/12/22 05:47:03;;;;;;;16.50;11.20;;;;;;;2.13;100.00;97401.95;87262;269;23792;-72
2023/12/22 05:49:05;;;;;;;17.50;10.80;;;;;;;2.07;100.00;97398.41;87247;267;137067;-73
2023/12/22 05:51:13;;;;;;;13.70;10.60;;;;;;;2.02;100.00;97403.95;87391;267;25162;-70
2023/12/22 05:53:15;;;;;;;12.60;9.90;;;;;;;2.04;100.00;97403.91;87133;271;137310;-73
2023/12/22 05:55:16;;;;;;;14.00;12.20;;;;;;;2.03;100.00;97404.71;87068;278;25086;-72
2023/12/22 05:57:18;;;;;;;16.20;10.60;;;;;;;2.02;100.00;97395.39;86996;271;138645;-69
2023/12/22 05:59:20;;;;;;;13.20;10.90;;;;;;;2.07;100.00;97394.13;87073;278;22587;-74
2023/12/22 06:01:22;;;;;;;16.60;11.80;;;;;;;2.10;100.00;97394.60;86931;275;136922;-73
2023/12/22 06:03:24;;;;;;;15.00;10.60;;;;;;;2.13;100.00;97387.59;87051;271;25149;-73
2023/12/22 06:05:26;;;;;;;14.20;11.50;;;;;;;2.10;100.00;97388.85;87073;270;137037;-72
2023/12/22 06:07:28;;;;;;;12.50;10.00;;;;;;;2.13;100.00;97389.02;87059;267;22571;-73
2023/12/22 06:09:30;;;;;;;16.80;11.80;;;;;;;2.17;100.00;97396.18;87063;271;136881;-74
2023/12/22 06:11:34;;;;;;;12.90;10.40;;;;;;;2.19;100.00;97395.80;87174;271;22551;-71
2023/12/22 06:13:36;;;;;;;14.60;11.80;;;;;;;2.22;100.00;97397.67;87000;278;137981;-72
2023/12/22 06:15:38;;;;;;;14.30;9.70;;;;;;;2.24;100.00;97396.50;87049;271;22853;-74
2023/12/22 06:17:40;;;;;;;14.70;10.70;;;;;;;2.24;100.00;97402.48;87042;267;136810;-73
2023/12/22 06:19:42;;;;;;;15.00;10.50;;;;;;;2.25;100.00;97398.23;87080;271;25124;-75
2023/12/22 06:21:44;;;;;;;15.70;10.90;;;;;;;2.25;100.00;97396.71;87502;275;137470;-73
2023/12/22 06:23:47;;;;;;;11.70;10.00;;;;;;;2.21;100.00;97390.40;87136;271;22839;-74
2023/12/22 06:25:49;;;;;;;14.60;11.60;;;;;;;2.19;100.00;97380.71;87049;271;137065;-73
2023/12/22 06:27:52;;;;;;;15.00;11.60;;;;;;;2.20;100.00;97386.86;87170;271;24828;-74
2023/12/22 06:29:55;;;;;;;14.50;11.10;;;;;;;2.21;100.00;97380.83;86979;274;136633;-74
2023/12/22 06:31:57;;;;;;;16.80;11.40;;;;;;;2.21;100.00;97376.78;87317;270;22564;-73
2023/12/22 06:34:01;;;;;;;13.50;10.30;;;;;;;2.23;100.00;97375.23;86984;267;137674;-74
2023/12/22 06:36:05;;;;;;;14.20;11.50;;;;;;;2.21;100.00;97369.64;87134;274;137279;-72
2023/12/22 06:38:07;;;;;;;16.70;11.90;;;;;;;2.18;100.00;97369.95;87048;268;22661;-74
2023/12/22 06:40:11;;;;;;;15.50;11.50;;;;;;;2.12;100.00;97361.29;87113;271;137480;-72
2023/12/22 06:42:13;;;;;;;14.40;11.20;;;;;;;2.09;100.00;97363.77;87135;271;22594;-76
2023/12/22 06:44:15;;;;;;;17.00;12.20;;;;;;;2.03;100.00;97359.38;87026;274;136932;-72
2023/12/22 06:46:21;;;;;;;18.00;11.90;;;;;;;1.96;100.00;97362.50;87166;279;22574;-74
2023/12/22 06:48:23;;;;;;;17.80;13.10;;;;;;;1.90;100.00;97359.86;87106;275;137165;-74
2023/12/22 06:50:25;;;;;;;16.00;13.00;;;;;;;1.82;100.00;97353.56;87146;264;25112;-74
2023/12/22 06:52:28;;;;;;;18.10;12.00;;;;;;;1.83;100.00;97355.33;86989;274;137049;-71
2023/12/22 06:54:30;;;;;;;17.30;12.40;;;;;;;1.86;100.00;97350.29;87427;267;26023;-69
2023/12/22 06:56:34;;;;;;;15.90;13.50;;;;;;;1.87;100.00;97353.27;87034;270;137066;-74
2023/12/22 06:58:36;;;;;;;14.60;12.30;;;;;;;1.87;100.00;97354.15;87105;270;22652;-73
2023/12/22 07:00:40;;;;;;;18.90;13.40;;;;;;;1.87;100.00;97353.74;87054;271;137187;-73
2023/12/22 07:02:42;;;;;;;;;;;;;;;1.90;100.00;97345.55;87225;271;25096;-74
2023/12/22 07:05:23;;;;;;;15.10;11.50;;;;;;;1.86;100.00;97345.63;86925;271;124137;-72
2023/12/22 07:07:25;;;;;;;18.70;12.70;;;;;;;1.84;100.00;97346.48;90188;263;22485;-74
2023/12/22 07:09:28;;;;;;;15.90;12.00;;;;;;;1.86;100.00;97339.00;89909;274;136839;-74
2023/12/22 07:11:30;;;;;;;17.50;12.70;;;;;;;1.90;100.00;97331.67;90054;274;22367;-76
2023/12/22 07:13:38;;;;;;;15.00;12.10;;;;;;;1.96;100.00;97340.32;89860;266;138291;-73
2023/12/22 07:15:40;;;;;;;16.60;12.00;;;;;;;1.98;100.00;97332.96;88020;276;22568;-74
2023/12/22 07:17:43;;;;;;;16.60;13.10;;;;;;;1.98;100.00;97334.69;87081;272;136982;-77
2023/12/22 07:19:46;;;;;;;18.80;12.80;;;;;;;1.95;100.00;97333.98;87137;271;23785;-76
2023/12/22 07:21:47;;;;;;;22.20;13.40;;;;;;;1.96;100.00;97338.62;86963;275;136999;-75
2023/12/22 07:23:50;;;;;;;19.00;12.40;;;;;;;1.96;100.00;97329.77;87187;267;24047;-78
2023/12/22 07:25:52;;;;;;;19.60;12.40;;;;;;;1.93;100.00;97329.33;87216;271;137153;-76
2023/12/22 07:27:54;;;;;;;18.80;14.30;;;;;;;1.90;100.00;97323.92;87351;271;22728;-76
2023/12/22 07:29:58;;;;;;;14.80;11.70;;;;;;;1.90;100.00;97320.61;87394;278;136989;-74
2023/12/22 07:32:00;;;;;;;17.50;12.50;;;;;;;1.90;100.00;97321.73;87521;278;24028;-74
2023/12/22 07:34:02;;;;;;;17.50;13.10;;;;;;;1.82;100.00;97309.60;87100;270;136850;-75
2023/12/22 07:36:04;;;;;;;14.90;11.50;;;;;;;1.88;100.00;97323.77;87319;269;137266;-75
2023/12/22 07:38:07;;;;;;;17.10;11.80;;;;;;;1.87;100.00;97319.45;87341;271;23888;-74
2023/12/22 07:40:10;;;;;;;14.50;12.40;;;;;;;1.86;100.00;97316.73;87074;267;137361;-70
2023/12/22 07:42:12;;;;;;;20.20;14.20;;;;;;;1.84;100.00;97318.09;87153;271;22568;-77
2023/12/22 07:44:15;;;;;;;18.70;11.70;;;;;;;1.87;100.00;97321.27;87013;271;137360;-78
2023/12/22 07:46:18;;;;;;;19.70;14.00;;;;;;;1.87;100.00;97323.13;87340;267;24058;-73
2023/12/22 07:48:21;;;;;;;14.00;12.20;;;;;;;1.85;100.00;97321.89;86889;278;136989;-76
2023/12/22 07:50:26;;;;;;;18.30;13.70;;;;;;;1.85;100.00;97316.70;87188;271;25117;-75
2023/12/22 07:52:27;;;;;;;18.10;12.90;;;;;;;1.87;100.00;97321.27;87113;279;137035;-75
2023/12/22 07:54:29;;;;;;;17.50;13.50;;;;;;;1.86;100.00;97316.46;87114;275;25130;-78
2023/12/22 07:56:31;;;;;;;18.00;13.20;;;;;;;1.86;100.00;97313.64;87045;267;137091;-77
2023/12/22 07:58:33;;;;;;;19.20;13.10;;;;;;;1.84;100.00;97313.45;86751;271;549364;-76
2023/12/22 08:00:35;;;;;;;22.20;13.40;;;;;;;1.84;100.00;97305.11;87101;279;137141;-75
2023/12/22 08:02:38;;;;;;;19.80;14.60;;;;;;;1.87;100.00;97307.20;87247;271;22561;-75
2023/12/22 08:04:41;;;;;;;16.80;13.40;;;;;;;1.87;100.00;97304.09;87147;270;136869;-76
2023/12/22 08:06:43;;;;;;;18.70;14.20;;;;;;;1.87;100.00;97307.77;87169;279;22567;-77
2023/12/22 08:08:45;;;;;;;19.80;13.80;;;;;;;1.86;100.00;97305.91;87200;271;137206;-70
2023/12/22 08:10:48;;;;;;;19.90;15.00;;;;;;;1.88;100.00;97304.13;87182;266;22679;-70
2023/12/22 08:12:50;;;;;;;15.70;12.00;;;;;;;1.91;100.00;97298.95;87127;274;138557;-73
2023/12/22 08:14:52;;;;;;;18.70;13.40;;;;;;;1.96;100.00;97296.04;87268;278;23883;-74
2023/12/22 08:16:53;;;;;;;19.10;13.30;;;;;;;1.96;100.00;97292.99;87205;271;137341;-75
2023/12/22 08:18:55;;;;;;;19.40;12.70;;;;;;;2.00;100.00;97291.64;87247;274;22894;-75
2023/12/22 08:20:57;;;;;;;16.80;13.60;;;;;;;2.04;100.00;97292.19;87142;267;136751;-73
2023/12/22 08:23:03;;;;;;;19.80;13.10;;;;;;;2.05;100.00;97292.79;87239;278;22573;-74
2023/12/22 08:25:11;;;;;;;16.70;12.60;;;;;;;2.05;100.00;97279.94;86917;270;137009;-75
2023/12/22 08:27:13;;;;;;;18.30;12.40;;;;;;;2.09;100.00;97273.58;87219;271;22729;-76
2023/12/22 08:29:15;;;;;;;16.30;11.80;;;;;;;2.14;100.00;97271.16;87091;269;137099;-76
2023/12/22 08:31:18;;;;;;;22.00;14.20;;;;;;;2.16;100.00;97269.79;87338;266;25242;-76
2023/12/22 08:33:20;;;;;;;18.50;13.00;;;;;;;2.22;100.00;97264.83;87218;270;138273;-76
2023/12/22 08:35:22;;;;;;;17.10;12.90;;;;;;;2.25;100.00;97266.11;87295;271;24126;-74
2023/12/22 08:37:24;;;;;;;18.20;13.60;;;;;;;2.24;100.00;97264.95;87110;278;137486;-77
2023/12/22 08:39:26;;;;;;;16.00;11.70;;;;;;;2.24;100.00;97266.15;87049;266;23705;-74
2023/12/22 08:41:28;;;;;;;19.40;12.30;;;;;;;2.27;100.00;97264.84;86989;270;138250;-75
2023/12/22 08:43:30;;;;;;;17.80;13.20;;;;;;;2.27;100.00;97253.44;87205;278;25200;-72
2023/12/22 08:45:32;;;;;;;18.70;13.00;;;;;;;2.28;100.00;97255.41;87008;279;136410;-75
2023/12/22 08:47:34;;;;;;;15.80;12.10;;;;;;;2.30;100.00;97248.38;87275;271;22562;-77
2023/12/22 08:49:37;;;;;;;15.10;11.70;;;;;;;2.24;100.00;97244.77;87202;266;137079;-74
2023/12/22 08:51:39;;;;;;;17.80;13.60;;;;;;;2.26;100.00;97245.36;87087;279;22574;-76
2023/12/22 08:53:43;;;;;;;15.80;13.20;;;;;;;2.26;100.00;97235.20;86877;271;137342;-74
2023/12/22 08:55:45;;;;;;;13.80;11.20;;;;;;;2.28;100.00;97232.48;87221;271;22636;-74
2023/12/22 08:57:47;;;;;;;17.00;13.60;;;;;;;2.31;100.00;97231.61;87106;271;137237;-75
2023/12/22 09:00:00;;;;;;;17.10;12.60;;;;;;;2.35;100.00;97233.69;87210;278;22952;-76
2023/12/22 09:02:02;;;;;;;19.70;13.40;;;;;;;2.34;100.00;97236.65;87101;269;136650;-74
2023/12/22 09:04:05;;;;;;;17.60;12.50;;;;;;;2.38;100.00;97231.40;87237;269;137517;-73
2023/12/22 09:06:10;;;;;;;14.00;11.00;;;;;;;2.44;100.00;97228.19;87229;267;25228;-75
2023/12/22 09:08:12;;;;;;;16.20;12.40;;;;;;;2.46;100.00;97220.73;87256;271;138129;-70
2023/12/22 09:10:15;;;;;;;17.40;13.20;;;;;;;2.58;100.00;97231.08;87297;269;23974;-76
2023/12/22 09:12:17;;;;;;;18.40;12.40;;;;;;;2.63;100.00;97232.50;87006;270;137191;-77
2023/12/22 09:14:20;;;;;;;14.70;11.50;;;;;;;2.70;100.00;97235.08;87108;279;25221;-76
2023/12/22 09:16:23;;;;;;;18.60;11.50;;;;;;;2.74;100.00;97232.25;87046;275;137880;-76
2023/12/22 09:18:25;;;;;;;17.60;12.50;;;;;;;2.74;100.00;97228.50;86979;271;22566;-78
2023/12/22 09:20:28;;;;;;;17.40;11.60;;;;;;;2.78;100.00;97230.85;87068;271;137081;-76
2023/12/22 09:22:30;;;;;;;17.50;11.60;;;;;;;2.79;100.00;97228.58;87318;278;24545;-77
2023/12/22 09:24:32;;;;;;;16.70;12.40;;;;;;;2.81;100.00;97229.17;86920;271;137309;-75
2023/12/22 09:26:34;;;;;;;17.50;13.10;;;;;;;2.83;100.00;97224.58;87169;271;22573;-77
2023/12/22 09:28:36;;;;;;;15.60;11.00;;;;;;;2.86;100.00;97228.81;87064;267;136899;-73
2023/12/22 09:30:38;;;;;;;14.10;11.40;;;;;;;2.86;100.00;97227.43;87092;271;23026;-73